sensor_id;sensor_type;location;lat;lon;timestamp;P1;durP1;ratioP1;P2;durP2;ratioP2
85158;SDS011;75525;50.718;10.600;2024-02-26T00:00:26;2.55;;;2.22;;
85158;SDS011;75525;50.718;10.600;2024-02-26T00:01:27;5.00;;;2.10;;
85158;SDS011;75525;50.718;10.600;2024-02-26T00:02:27;4.05;;;2.40;;
85158;SDS011;75525;50.718;10.600;2024-02-26T00:03:28;3.20;;;2.33;;
85158;SDS011;75525;50.718;10.600;2024-02-26T00:04:28;3.30;;;2.00;;
85158;SDS011;75525;50.718;10.600;2024-02-26T00:05:29;3.00;;;1.98;;
85158;SDS011;75525;50.718;10.600;2024-02-26T00:06:31;3.20;;;2.28;;
85158;SDS011;75525;50.718;10.600;2024-02-26T00:07:32;3.08;;;1.80;;
85158;SDS011;75525;50.718;10.600;2024-02-26T00:08:33;2.88;;;2.15;;
85158;SDS011;75525;50.718;10.600;2024-02-26T00:09:33;2.10;;;1.48;;
85158;SDS011;75525;50.718;10.600;2024-02-26T00:10:36;3.47;;;2.03;;
85158;SDS011;75525;50.718;10.600;2024-02-26T00:11:36;3.85;;;1.80;;
85158;SDS011;75525;50.718;10.600;2024-02-26T00:12:37;2.80;;;1.90;;
85158;SDS011;75525;50.718;10.600;2024-02-26T00:13:39;2.50;;;1.80;;
85158;SDS011;75525;50.718;10.600;2024-02-26T00:14:39;3.90;;;1.90;;
85158;SDS011;75525;50.718;10.600;2024-02-26T00:15:41;1.98;;;1.10;;
85158;SDS011;75525;50.718;10.600;2024-02-26T00:16:41;1.33;;;1.10;;
85158;SDS011;75525;50.718;10.600;2024-02-26T00:17:42;2.78;;;1.30;;
85158;SDS011;75525;50.718;10.600;2024-02-26T00:18:42;2.13;;;1.55;;
85158;SDS011;75525;50.718;10.600;2024-02-26T00:19:43;2.78;;;1.70;;
85158;SDS011;75525;50.718;10.600;2024-02-26T00:20:43;2.33;;;1.50;;
85158;SDS011;75525;50.718;10.600;2024-02-26T00:21:43;2.10;;;1.33;;
85158;SDS011;75525;50.718;10.600;2024-02-26T00:22:44;2.60;;;1.30;;
85158;SDS011;75525;50.718;10.600;2024-02-26T00:23:44;2.70;;;1.65;;
85158;SDS011;75525;50.718;10.600;2024-02-26T00:24:45;2.90;;;1.58;;
85158;SDS011;75525;50.718;10.600;2024-02-26T00:25:45;2.58;;;1.70;;
85158;SDS011;75525;50.718;10.600;2024-02-26T00:26:46;4.20;;;1.38;;
85158;SDS011;75525;50.718;10.600;2024-02-26T00:27:46;2.10;;;1.50;;
85158;SDS011;75525;50.718;10.600;2024-02-26T00:28:46;2.42;;;1.42;;
85158;SDS011;75525;50.718;10.600;2024-02-26T00:29:47;1.80;;;1.20;;
85158;SDS011;75525;50.718;10.600;2024-02-26T00:30:47;1.98;;;1.40;;
85158;SDS011;75525;50.718;10.600;2024-02-26T00:31:50;1.85;;;1.20;;
85158;SDS011;75525;50.718;10.600;2024-02-26T00:32:51;1.80;;;1.20;;
85158;SDS011;75525;50.718;10.600;2024-02-26T00:33:51;2.58;;;1.13;;
85158;SDS011;75525;50.718;10.600;2024-02-26T00:34:52;1.75;;;1.13;;
85158;SDS011;75525;50.718;10.600;2024-02-26T00:35:52;3.05;;;1.38;;
85158;SDS011;75525;50.718;10.600;2024-02-26T00:36:53;1.65;;;1.15;;
85158;SDS011;75525;50.718;10.600;2024-02-26T00:37:53;1.27;;;1.00;;
85158;SDS011;75525;50.718;10.600;2024-02-26T00:38:54;1.98;;;1.15;;
85158;SDS011;75525;50.718;10.600;2024-02-26T00:39:54;1.20;;;1.10;;
85158;SDS011;75525;50.718;10.600;2024-02-26T00:40:55;1.75;;;1.60;;
85158;SDS011;75525;50.718;10.600;2024-02-26T00:41:55;1.88;;;1.33;;
85158;SDS011;75525;50.718;10.600;2024-02-26T00:42:56;2.40;;;1.40;;
85158;SDS011;75525;50.718;10.600;2024-02-26T00:43:56;2.10;;;1.50;;
85158;SDS011;75525;50.718;10.600;2024-02-26T00:44:56;4.25;;;1.75;;
85158;SDS011;75525;50.718;10.600;2024-02-26T00:45:57;3.22;;;1.60;;
85158;SDS011;75525;50.718;10.600;2024-02-26T00:46:57;2.53;;;1.40;;
85158;SDS011;75525;50.718;10.600;2024-02-26T00:47:58;2.40;;;1.50;;
85158;SDS011;75525;50.718;10.600;2024-02-26T00:49:01;2.90;;;1.80;;
85158;SDS011;75525;50.718;10.600;2024-02-26T00:50:01;5.22;;;1.75;;
85158;SDS011;75525;50.718;10.600;2024-02-26T00:51:02;2.60;;;1.60;;
85158;SDS011;75525;50.718;10.600;2024-02-26T00:52:05;2.15;;;1.35;;
85158;SDS011;75525;50.718;10.600;2024-02-26T00:53:05;1.58;;;1.10;;
85158;SDS011;75525;50.718;10.600;2024-02-26T00:54:06;1.38;;;1.10;;
85158;SDS011;75525;50.718;10.600;2024-02-26T00:55:06;1.20;;;0.90;;
85158;SDS011;75525;50.718;10.600;2024-02-26T00:56:07;2.03;;;1.02;;
85158;SDS011;75525;50.718;10.600;2024-02-26T00:57:08;1.80;;;0.98;;
85158;SDS011;75525;50.718;10.600;2024-02-26T00:58:08;2.63;;;1.52;;
85158;SDS011;75525;50.718;10.600;2024-02-26T00:59:09;1.83;;;1.23;;
85158;SDS011;75525;50.718;10.600;2024-02-26T01:00:10;2.30;;;1.30;;
85158;SDS011;75525;50.718;10.600;2024-02-26T01:01:11;1.55;;;1.23;;
85158;SDS011;75525;50.718;10.600;2024-02-26T01:02:11;1.48;;;1.05;;
85158;SDS011;75525;50.718;10.600;2024-02-26T01:03:12;2.08;;;1.27;;
85158;SDS011;75525;50.718;10.600;2024-02-26T01:04:12;3.15;;;1.20;;
85158;SDS011;75525;50.718;10.600;2024-02-26T01:05:13;1.42;;;1.08;;
85158;SDS011;75525;50.718;10.600;2024-02-26T01:06:14;2.00;;;1.25;;
85158;SDS011;75525;50.718;10.600;2024-02-26T01:07:14;2.00;;;1.13;;
85158;SDS011;75525;50.718;10.600;2024-02-26T01:08:15;3.47;;;1.13;;
85158;SDS011;75525;50.718;10.600;2024-02-26T01:09:15;2.38;;;1.40;;
85158;SDS011;75525;50.718;10.600;2024-02-26T01:10:17;1.50;;;1.13;;
85158;SDS011;75525;50.718;10.600;2024-02-26T01:11:18;1.25;;;1.00;;
85158;SDS011;75525;50.718;10.600;2024-02-26T01:12:18;2.83;;;1.25;;
85158;SDS011;75525;50.718;10.600;2024-02-26T01:13:19;2.03;;;1.38;;
85158;SDS011;75525;50.718;10.600;2024-02-26T01:14:19;1.50;;;1.20;;
85158;SDS011;75525;50.718;10.600;2024-02-26T01:15:20;3.08;;;1.00;;
85158;SDS011;75525;50.718;10.600;2024-02-26T01:16:23;1.58;;;1.10;;
85158;SDS011;75525;50.718;10.600;2024-02-26T01:17:24;1.00;;;0.77;;
85158;SDS011;75525;50.718;10.600;2024-02-26T01:18:24;1.42;;;0.93;;
85158;SDS011;75525;50.718;10.600;2024-02-26T01:19:25;1.33;;;0.98;;
85158;SDS011;75525;50.718;10.600;2024-02-26T01:20:25;1.25;;;1.10;;
85158;SDS011;75525;50.718;10.600;2024-02-26T01:21:26;1.27;;;0.90;;
85158;SDS011;75525;50.718;10.600;2024-02-26T01:22:29;2.10;;;1.20;;
85158;SDS011;75525;50.718;10.600;2024-02-26T01:23:29;1.63;;;1.13;;
85158;SDS011;75525;50.718;10.600;2024-02-26T01:24:30;1.45;;;1.10;;
85158;SDS011;75525;50.718;10.600;2024-02-26T01:25:30;1.65;;;1.10;;
85158;SDS011;75525;50.718;10.600;2024-02-26T01:26:30;1.70;;;0.98;;
85158;SDS011;75525;50.718;10.600;2024-02-26T01:27:31;1.10;;;0.95;;
85158;SDS011;75525;50.718;10.600;2024-02-26T01:28:31;2.65;;;0.93;;
85158;SDS011;75525;50.718;10.600;2024-02-26T01:29:32;1.70;;;1.10;;
85158;SDS011;75525;50.718;10.600;2024-02-26T01:30:32;1.05;;;0.95;;
85158;SDS011;75525;50.718;10.600;2024-02-26T01:31:33;1.13;;;0.93;;
85158;SDS011;75525;50.718;10.600;2024-02-26T01:32:33;1.88;;;1.08;;
85158;SDS011;75525;50.718;10.600;2024-02-26T01:33:33;1.92;;;1.30;;
85158;SDS011;75525;50.718;10.600;2024-02-26T01:34:34;3.13;;;1.20;;
85158;SDS011;75525;50.718;10.600;2024-02-26T01:35:36;2.28;;;1.10;;
85158;SDS011;75525;50.718;10.600;2024-02-26T01:36:37;1.77;;;1.05;;
85158;SDS011;75525;50.718;10.600;2024-02-26T01:37:38;1.17;;;1.00;;
85158;SDS011;75525;50.718;10.600;2024-02-26T01:38:38;2.13;;;1.20;;
85158;SDS011;75525;50.718;10.600;2024-02-26T01:39:39;1.15;;;1.00;;
85158;SDS011;75525;50.718;10.600;2024-02-26T01:40:41;1.35;;;1.25;;
85158;SDS011;75525;50.718;10.600;2024-02-26T01:41:42;2.47;;;0.98;;
85158;SDS011;75525;50.718;10.600;2024-02-26T01:42:43;1.45;;;1.02;;
85158;SDS011;75525;50.718;10.600;2024-02-26T01:43:44;1.55;;;1.00;;
85158;SDS011;75525;50.718;10.600;2024-02-26T01:44:44;1.08;;;0.93;;
85158;SDS011;75525;50.718;10.600;2024-02-26T01:45:45;1.73;;;1.08;;
85158;SDS011;75525;50.718;10.600;2024-02-26T01:46:46;0.75;;;0.68;;
85158;SDS011;75525;50.718;10.600;2024-02-26T01:47:51;1.75;;;1.30;;
85158;SDS011;75525;50.718;10.600;2024-02-26T01:48:52;3.47;;;1.10;;
85158;SDS011;75525;50.718;10.600;2024-02-26T01:49:53;1.65;;;1.00;;
85158;SDS011;75525;50.718;10.600;2024-02-26T01:50:54;1.63;;;0.90;;
85158;SDS011;75525;50.718;10.600;2024-02-26T01:51:54;0.77;;;0.70;;
85158;SDS011;75525;50.718;10.600;2024-02-26T01:52:55;1.08;;;0.85;;
85158;SDS011;75525;50.718;10.600;2024-02-26T01:53:57;1.15;;;0.93;;
85158;SDS011;75525;50.718;10.600;2024-02-26T01:54:59;1.58;;;1.05;;
85158;SDS011;75525;50.718;10.600;2024-02-26T01:56:01;1.27;;;0.90;;
85158;SDS011;75525;50.718;10.600;2024-02-26T01:57:03;0.88;;;0.88;;
85158;SDS011;75525;50.718;10.600;2024-02-26T01:58:05;2.13;;;0.98;;
85158;SDS011;75525;50.718;10.600;2024-02-26T01:59:05;1.58;;;1.00;;
85158;SDS011;75525;50.718;10.600;2024-02-26T02:00:08;1.05;;;0.80;;
85158;SDS011;75525;50.718;10.600;2024-02-26T02:01:09;2.85;;;0.80;;
85158;SDS011;75525;50.718;10.600;2024-02-26T02:02:10;0.90;;;0.80;;
85158;SDS011;75525;50.718;10.600;2024-02-26T02:03:11;0.90;;;0.57;;
85158;SDS011;75525;50.718;10.600;2024-02-26T02:04:12;1.25;;;1.02;;
85158;SDS011;75525;50.718;10.600;2024-02-26T02:05:13;1.17;;;0.90;;
85158;SDS011;75525;50.718;10.600;2024-02-26T02:07:17;1.10;;;1.00;;
85158;SDS011;75525;50.718;10.600;2024-02-26T02:08:19;1.65;;;1.05;;
85158;SDS011;75525;50.718;10.600;2024-02-26T02:09:19;1.30;;;1.00;;
85158;SDS011;75525;50.718;10.600;2024-02-26T02:10:20;1.38;;;1.00;;
85158;SDS011;75525;50.718;10.600;2024-02-26T02:11:25;2.45;;;0.85;;
85158;SDS011;75525;50.718;10.600;2024-02-26T02:12:25;0.93;;;0.90;;
85158;SDS011;75525;50.718;10.600;2024-02-26T02:13:27;0.82;;;0.70;;
85158;SDS011;75525;50.718;10.600;2024-02-26T02:14:27;1.70;;;1.05;;
85158;SDS011;75525;50.718;10.600;2024-02-26T02:15:28;2.42;;;0.90;;
85158;SDS011;75525;50.718;10.600;2024-02-26T02:16:28;1.50;;;1.15;;
85158;SDS011;75525;50.718;10.600;2024-02-26T02:17:30;1.23;;;0.75;;
85158;SDS011;75525;50.718;10.600;2024-02-26T02:18:31;1.80;;;1.17;;
85158;SDS011;75525;50.718;10.600;2024-02-26T02:19:31;1.98;;;0.80;;
85158;SDS011;75525;50.718;10.600;2024-02-26T02:20:32;1.33;;;0.88;;
85158;SDS011;75525;50.718;10.600;2024-02-26T02:21:33;0.75;;;0.70;;
85158;SDS011;75525;50.718;10.600;2024-02-26T02:22:34;1.00;;;0.90;;
85158;SDS011;75525;50.718;10.600;2024-02-26T02:23:34;2.08;;;1.33;;
85158;SDS011;75525;50.718;10.600;2024-02-26T02:24:35;1.85;;;0.90;;
85158;SDS011;75525;50.718;10.600;2024-02-26T02:25:35;1.33;;;1.05;;
85158;SDS011;75525;50.718;10.600;2024-02-26T02:26:36;1.05;;;0.80;;
85158;SDS011;75525;50.718;10.600;2024-02-26T02:27:36;1.30;;;1.20;;
85158;SDS011;75525;50.718;10.600;2024-02-26T02:28:37;1.00;;;0.85;;
85158;SDS011;75525;50.718;10.600;2024-02-26T02:29:40;1.60;;;0.90;;
85158;SDS011;75525;50.718;10.600;2024-02-26T02:30:40;0.80;;;0.80;;
85158;SDS011;75525;50.718;10.600;2024-02-26T02:31:41;0.95;;;0.73;;
85158;SDS011;75525;50.718;10.600;2024-02-26T02:32:42;0.80;;;0.70;;
85158;SDS011;75525;50.718;10.600;2024-02-26T02:33:43;1.05;;;0.85;;
85158;SDS011;75525;50.718;10.600;2024-02-26T02:34:44;0.80;;;0.77;;
85158;SDS011;75525;50.718;10.600;2024-02-26T02:35:45;2.95;;;1.15;;
85158;SDS011;75525;50.718;10.600;2024-02-26T02:36:51;2.47;;;0.90;;
85158;SDS011;75525;50.718;10.600;2024-02-26T02:37:52;0.88;;;0.80;;
85158;SDS011;75525;50.718;10.600;2024-02-26T02:38:53;3.42;;;0.98;;
85158;SDS011;75525;50.718;10.600;2024-02-26T02:39:53;1.00;;;0.80;;
85158;SDS011;75525;50.718;10.600;2024-02-26T02:40:55;1.10;;;1.00;;
85158;SDS011;75525;50.718;10.600;2024-02-26T02:41:55;1.00;;;0.80;;
85158;SDS011;75525;50.718;10.600;2024-02-26T02:42:55;1.30;;;0.90;;
85158;SDS011;75525;50.718;10.600;2024-02-26T02:43:56;1.35;;;1.02;;
85158;SDS011;75525;50.718;10.600;2024-02-26T02:44:57;0.80;;;0.80;;
85158;SDS011;75525;50.718;10.600;2024-02-26T02:45:58;0.95;;;0.80;;
85158;SDS011;75525;50.718;10.600;2024-02-26T02:46:58;2.00;;;0.95;;
85158;SDS011;75525;50.718;10.600;2024-02-26T02:47:59;0.57;;;0.55;;
85158;SDS011;75525;50.718;10.600;2024-02-26T02:48:59;1.05;;;0.93;;
85158;SDS011;75525;50.718;10.600;2024-02-26T02:49:59;1.05;;;0.95;;
85158;SDS011;75525;50.718;10.600;2024-02-26T02:51:00;1.75;;;0.70;;
85158;SDS011;75525;50.718;10.600;2024-02-26T02:52:00;1.05;;;0.80;;
85158;SDS011;75525;50.718;10.600;2024-02-26T02:53:01;0.70;;;0.70;;
85158;SDS011;75525;50.718;10.600;2024-02-26T02:54:02;1.20;;;0.70;;
85158;SDS011;75525;50.718;10.600;2024-02-26T02:55:03;1.40;;;1.00;;
85158;SDS011;75525;50.718;10.600;2024-02-26T02:56:04;1.10;;;0.75;;
85158;SDS011;75525;50.718;10.600;2024-02-26T02:57:04;1.83;;;0.90;;
85158;SDS011;75525;50.718;10.600;2024-02-26T02:58:05;1.02;;;0.88;;
85158;SDS011;75525;50.718;10.600;2024-02-26T02:59:05;1.13;;;0.98;;
85158;SDS011;75525;50.718;10.600;2024-02-26T03:00:08;0.85;;;0.60;;
85158;SDS011;75525;50.718;10.600;2024-02-26T03:01:09;1.25;;;0.90;;
85158;SDS011;75525;50.718;10.600;2024-02-26T03:02:09;1.90;;;1.00;;
85158;SDS011;75525;50.718;10.600;2024-02-26T03:03:10;0.73;;;0.73;;
85158;SDS011;75525;50.718;10.600;2024-02-26T03:04:10;1.33;;;0.90;;
85158;SDS011;75525;50.718;10.600;2024-02-26T03:05:10;1.33;;;1.00;;
85158;SDS011;75525;50.718;10.600;2024-02-26T03:06:11;0.77;;;0.77;;
85158;SDS011;75525;50.718;10.600;2024-02-26T03:07:11;0.98;;;0.80;;
85158;SDS011;75525;50.718;10.600;2024-02-26T03:08:12;1.17;;;0.90;;
85158;SDS011;75525;50.718;10.600;2024-02-26T03:09:12;1.15;;;0.75;;
85158;SDS011;75525;50.718;10.600;2024-02-26T03:10:13;1.40;;;0.82;;
85158;SDS011;75525;50.718;10.600;2024-02-26T03:11:14;1.73;;;1.20;;
85158;SDS011;75525;50.718;10.600;2024-02-26T03:12:15;0.93;;;0.82;;
85158;SDS011;75525;50.718;10.600;2024-02-26T03:13:15;1.23;;;0.93;;
85158;SDS011;75525;50.718;10.600;2024-02-26T03:14:16;0.98;;;0.90;;
85158;SDS011;75525;50.718;10.600;2024-02-26T03:15:16;1.15;;;0.70;;
85158;SDS011;75525;50.718;10.600;2024-02-26T03:16:17;1.23;;;1.08;;
85158;SDS011;75525;50.718;10.600;2024-02-26T03:17:18;1.83;;;0.70;;
85158;SDS011;75525;50.718;10.600;2024-02-26T03:18:19;1.55;;;1.00;;
85158;SDS011;75525;50.718;10.600;2024-02-26T03:19:20;1.45;;;0.93;;
85158;SDS011;75525;50.718;10.600;2024-02-26T03:20:21;1.23;;;1.10;;
85158;SDS011;75525;50.718;10.600;2024-02-26T03:21:21;1.55;;;1.05;;
85158;SDS011;75525;50.718;10.600;2024-02-26T03:22:21;2.10;;;1.23;;
85158;SDS011;75525;50.718;10.600;2024-02-26T03:23:22;1.48;;;1.08;;
85158;SDS011;75525;50.718;10.600;2024-02-26T03:24:22;1.20;;;1.10;;
85158;SDS011;75525;50.718;10.600;2024-02-26T03:25:23;1.33;;;1.00;;
85158;SDS011;75525;50.718;10.600;2024-02-26T03:26:23;1.17;;;0.88;;
85158;SDS011;75525;50.718;10.600;2024-02-26T03:27:24;1.90;;;1.20;;
85158;SDS011;75525;50.718;10.600;2024-02-26T03:28:24;1.75;;;1.10;;
85158;SDS011;75525;50.718;10.600;2024-02-26T03:29:24;1.00;;;0.82;;
85158;SDS011;75525;50.718;10.600;2024-02-26T03:30:25;1.17;;;0.95;;
85158;SDS011;75525;50.718;10.600;2024-02-26T03:31:25;1.98;;;1.05;;
85158;SDS011;75525;50.718;10.600;2024-02-26T03:32:26;1.52;;;0.70;;
85158;SDS011;75525;50.718;10.600;2024-02-26T03:33:26;2.05;;;1.15;;
85158;SDS011;75525;50.718;10.600;2024-02-26T03:34:27;1.45;;;0.95;;
85158;SDS011;75525;50.718;10.600;2024-02-26T03:35:28;0.80;;;0.80;;
85158;SDS011;75525;50.718;10.600;2024-02-26T03:36:28;1.05;;;0.80;;
85158;SDS011;75525;50.718;10.600;2024-02-26T03:37:29;0.82;;;0.65;;
85158;SDS011;75525;50.718;10.600;2024-02-26T03:38:29;1.08;;;0.60;;
85158;SDS011;75525;50.718;10.600;2024-02-26T03:39:30;2.03;;;0.90;;
85158;SDS011;75525;50.718;10.600;2024-02-26T03:40:31;1.48;;;1.08;;
85158;SDS011;75525;50.718;10.600;2024-02-26T03:41:35;2.22;;;0.70;;
85158;SDS011;75525;50.718;10.600;2024-02-26T03:43:36;2.00;;;0.80;;
85158;SDS011;75525;50.718;10.600;2024-02-26T03:44:36;0.70;;;0.70;;
85158;SDS011;75525;50.718;10.600;2024-02-26T03:45:37;1.48;;;0.95;;
85158;SDS011;75525;50.718;10.600;2024-02-26T03:46:37;1.10;;;1.00;;
85158;SDS011;75525;50.718;10.600;2024-02-26T03:47:38;3.03;;;1.10;;
85158;SDS011;75525;50.718;10.600;2024-02-26T03:48:41;0.93;;;0.82;;
85158;SDS011;75525;50.718;10.600;2024-02-26T03:49:42;2.05;;;0.82;;
85158;SDS011;75525;50.718;10.600;2024-02-26T03:50:42;1.33;;;1.10;;
85158;SDS011;75525;50.718;10.600;2024-02-26T03:51:43;0.93;;;0.90;;
85158;SDS011;75525;50.718;10.600;2024-02-26T03:52:43;2.88;;;0.90;;
85158;SDS011;75525;50.718;10.600;2024-02-26T03:53:43;0.85;;;0.80;;
85158;SDS011;75525;50.718;10.600;2024-02-26T03:54:44;2.03;;;1.00;;
85158;SDS011;75525;50.718;10.600;2024-02-26T03:55:45;1.33;;;0.90;;
85158;SDS011;75525;50.718;10.600;2024-02-26T03:56:46;3.80;;;1.20;;
85158;SDS011;75525;50.718;10.600;2024-02-26T03:57:46;1.27;;;1.08;;
85158;SDS011;75525;50.718;10.600;2024-02-26T03:58:47;3.75;;;1.85;;
85158;SDS011;75525;50.718;10.600;2024-02-26T03:59:47;18.95;;;7.32;;
85158;SDS011;75525;50.718;10.600;2024-02-26T04:00:47;18.65;;;7.80;;
85158;SDS011;75525;50.718;10.600;2024-02-26T04:01:48;39.85;;;18.30;;
85158;SDS011;75525;50.718;10.600;2024-02-26T04:02:49;21.30;;;9.20;;
85158;SDS011;75525;50.718;10.600;2024-02-26T04:03:50;15.05;;;7.80;;
85158;SDS011;75525;50.718;10.600;2024-02-26T04:04:50;11.93;;;5.80;;
85158;SDS011;75525;50.718;10.600;2024-02-26T04:05:50;11.00;;;5.55;;
85158;SDS011;75525;50.718;10.600;2024-02-26T04:06:51;7.72;;;3.75;;
85158;SDS011;75525;50.718;10.600;2024-02-26T04:07:51;6.07;;;3.10;;
85158;SDS011;75525;50.718;10.600;2024-02-26T04:08:52;7.05;;;3.50;;
85158;SDS011;75525;50.718;10.600;2024-02-26T04:09:52;5.32;;;2.92;;
85158;SDS011;75525;50.718;10.600;2024-02-26T04:10:53;7.13;;;3.13;;
85158;SDS011;75525;50.718;10.600;2024-02-26T04:11:53;5.07;;;3.05;;
85158;SDS011;75525;50.718;10.600;2024-02-26T04:12:54;6.40;;;2.70;;
85158;SDS011;75525;50.718;10.600;2024-02-26T04:13:54;5.47;;;2.85;;
85158;SDS011;75525;50.718;10.600;2024-02-26T04:14:55;3.83;;;2.38;;
85158;SDS011;75525;50.718;10.600;2024-02-26T04:15:55;6.63;;;3.45;;
85158;SDS011;75525;50.718;10.600;2024-02-26T04:16:56;7.55;;;3.72;;
85158;SDS011;75525;50.718;10.600;2024-02-26T04:17:56;9.15;;;4.35;;
85158;SDS011;75525;50.718;10.600;2024-02-26T04:18:57;7.68;;;4.00;;
85158;SDS011;75525;50.718;10.600;2024-02-26T04:19:57;9.45;;;3.85;;
85158;SDS011;75525;50.718;10.600;2024-02-26T04:20:57;10.25;;;5.55;;
85158;SDS011;75525;50.718;10.600;2024-02-26T04:21:59;10.38;;;5.15;;
85158;SDS011;75525;50.718;10.600;2024-02-26T04:23:00;9.15;;;4.68;;
85158;SDS011;75525;50.718;10.600;2024-02-26T04:24:00;9.18;;;5.22;;
85158;SDS011;75525;50.718;10.600;2024-02-26T04:25:02;9.65;;;5.10;;
85158;SDS011;75525;50.718;10.600;2024-02-26T04:26:04;8.07;;;4.82;;
85158;SDS011;75525;50.718;10.600;2024-02-26T04:27:05;8.80;;;5.18;;
85158;SDS011;75525;50.718;10.600;2024-02-26T04:28:05;12.20;;;5.47;;
85158;SDS011;75525;50.718;10.600;2024-02-26T04:29:06;9.20;;;5.20;;
85158;SDS011;75525;50.718;10.600;2024-02-26T04:30:06;8.82;;;5.45;;
85158;SDS011;75525;50.718;10.600;2024-02-26T04:31:08;11.57;;;5.43;;
85158;SDS011;75525;50.718;10.600;2024-02-26T04:32:08;12.25;;;5.65;;
85158;SDS011;75525;50.718;10.600;2024-02-26T04:33:09;12.23;;;6.30;;
85158;SDS011;75525;50.718;10.600;2024-02-26T04:34:09;11.35;;;4.82;;
85158;SDS011;75525;50.718;10.600;2024-02-26T04:35:10;7.30;;;4.25;;
85158;SDS011;75525;50.718;10.600;2024-02-26T04:36:14;7.43;;;3.90;;
85158;SDS011;75525;50.718;10.600;2024-02-26T04:37:16;6.82;;;4.43;;
85158;SDS011;75525;50.718;10.600;2024-02-26T04:38:16;9.45;;;4.80;;
85158;SDS011;75525;50.718;10.600;2024-02-26T04:39:17;7.60;;;4.50;;
85158;SDS011;75525;50.718;10.600;2024-02-26T04:40:18;6.68;;;4.00;;
85158;SDS011;75525;50.718;10.600;2024-02-26T04:41:18;6.43;;;3.85;;
85158;SDS011;75525;50.718;10.600;2024-02-26T04:42:19;6.72;;;4.05;;
85158;SDS011;75525;50.718;10.600;2024-02-26T04:43:19;6.13;;;3.00;;
85158;SDS011;75525;50.718;10.600;2024-02-26T04:44:20;7.50;;;3.47;;
85158;SDS011;75525;50.718;10.600;2024-02-26T04:45:20;6.22;;;3.83;;
85158;SDS011;75525;50.718;10.600;2024-02-26T04:46:21;4.95;;;3.00;;
85158;SDS011;75525;50.718;10.600;2024-02-26T04:47:22;4.95;;;2.83;;
85158;SDS011;75525;50.718;10.600;2024-02-26T04:48:22;4.63;;;2.78;;
85158;SDS011;75525;50.718;10.600;2024-02-26T04:49:23;6.10;;;2.95;;
85158;SDS011;75525;50.718;10.600;2024-02-26T04:50:23;4.95;;;3.30;;
85158;SDS011;75525;50.718;10.600;2024-02-26T04:51:24;5.20;;;2.95;;
85158;SDS011;75525;50.718;10.600;2024-02-26T04:52:25;4.85;;;2.72;;
85158;SDS011;75525;50.718;10.600;2024-02-26T04:53:26;4.28;;;2.42;;
85158;SDS011;75525;50.718;10.600;2024-02-26T04:54:26;7.25;;;3.15;;
85158;SDS011;75525;50.718;10.600;2024-02-26T04:55:26;6.18;;;3.00;;
85158;SDS011;75525;50.718;10.600;2024-02-26T04:56:27;5.22;;;3.15;;
85158;SDS011;75525;50.718;10.600;2024-02-26T04:57:27;5.68;;;2.00;;
85158;SDS011;75525;50.718;10.600;2024-02-26T04:58:28;3.40;;;1.70;;
85158;SDS011;75525;50.718;10.600;2024-02-26T04:59:28;3.88;;;2.13;;
85158;SDS011;75525;50.718;10.600;2024-02-26T05:00:29;6.00;;;2.10;;
85158;SDS011;75525;50.718;10.600;2024-02-26T05:01:29;4.80;;;2.40;;
85158;SDS011;75525;50.718;10.600;2024-02-26T05:02:29;5.22;;;2.72;;
85158;SDS011;75525;50.718;10.600;2024-02-26T05:03:32;3.80;;;2.15;;
85158;SDS011;75525;50.718;10.600;2024-02-26T05:04:32;5.43;;;2.95;;
85158;SDS011;75525;50.718;10.600;2024-02-26T05:05:33;5.75;;;2.60;;
85158;SDS011;75525;50.718;10.600;2024-02-26T05:06:33;4.68;;;2.60;;
85158;SDS011;75525;50.718;10.600;2024-02-26T05:07:34;3.92;;;2.15;;
85158;SDS011;75525;50.718;10.600;2024-02-26T05:08:40;4.80;;;2.33;;
85158;SDS011;75525;50.718;10.600;2024-02-26T05:09:40;4.50;;;2.20;;
85158;SDS011;75525;50.718;10.600;2024-02-26T05:10:42;4.72;;;2.40;;
85158;SDS011;75525;50.718;10.600;2024-02-26T05:11:43;3.53;;;2.40;;
85158;SDS011;75525;50.718;10.600;2024-02-26T05:12:44;3.20;;;1.95;;
85158;SDS011;75525;50.718;10.600;2024-02-26T05:13:44;3.13;;;1.42;;
85158;SDS011;75525;50.718;10.600;2024-02-26T05:14:45;3.85;;;1.50;;
85158;SDS011;75525;50.718;10.600;2024-02-26T05:15:45;3.47;;;1.67;;
85158;SDS011;75525;50.718;10.600;2024-02-26T05:16:49;4.13;;;2.00;;
85158;SDS011;75525;50.718;10.600;2024-02-26T05:17:49;2.58;;;1.73;;
85158;SDS011;75525;50.718;10.600;2024-02-26T05:18:50;3.05;;;1.70;;
85158;SDS011;75525;50.718;10.600;2024-02-26T05:19:50;2.95;;;1.83;;
85158;SDS011;75525;50.718;10.600;2024-02-26T05:20:50;4.82;;;2.38;;
85158;SDS011;75525;50.718;10.600;2024-02-26T05:21:51;2.75;;;1.70;;
85158;SDS011;75525;50.718;10.600;2024-02-26T05:22:51;3.22;;;1.83;;
85158;SDS011;75525;50.718;10.600;2024-02-26T05:23:52;4.07;;;1.70;;
85158;SDS011;75525;50.718;10.600;2024-02-26T05:24:52;3.17;;;1.98;;
85158;SDS011;75525;50.718;10.600;2024-02-26T05:25:54;4.97;;;2.00;;
85158;SDS011;75525;50.718;10.600;2024-02-26T05:26:54;4.57;;;1.90;;
85158;SDS011;75525;50.718;10.600;2024-02-26T05:27:55;4.85;;;1.75;;
85158;SDS011;75525;50.718;10.600;2024-02-26T05:28:56;3.28;;;1.98;;
85158;SDS011;75525;50.718;10.600;2024-02-26T05:29:59;4.20;;;1.70;;
85158;SDS011;75525;50.718;10.600;2024-02-26T05:31:00;2.45;;;1.50;;
85158;SDS011;75525;50.718;10.600;2024-02-26T05:32:00;3.80;;;1.95;;
85158;SDS011;75525;50.718;10.600;2024-02-26T05:33:01;4.32;;;2.17;;
85158;SDS011;75525;50.718;10.600;2024-02-26T05:34:01;3.38;;;2.28;;
85158;SDS011;75525;50.718;10.600;2024-02-26T05:35:02;4.68;;;2.13;;
85158;SDS011;75525;50.718;10.600;2024-02-26T05:36:05;3.97;;;2.53;;
85158;SDS011;75525;50.718;10.600;2024-02-26T05:37:06;3.50;;;2.00;;
85158;SDS011;75525;50.718;10.600;2024-02-26T05:38:07;3.97;;;2.13;;
85158;SDS011;75525;50.718;10.600;2024-02-26T05:39:08;4.60;;;2.22;;
85158;SDS011;75525;50.718;10.600;2024-02-26T05:40:11;3.88;;;1.98;;
85158;SDS011;75525;50.718;10.600;2024-02-26T05:41:12;4.30;;;2.20;;
85158;SDS011;75525;50.718;10.600;2024-02-26T05:42:12;2.70;;;1.63;;
85158;SDS011;75525;50.718;10.600;2024-02-26T05:43:13;3.05;;;1.73;;
85158;SDS011;75525;50.718;10.600;2024-02-26T05:44:15;4.75;;;1.98;;
85158;SDS011;75525;50.718;10.600;2024-02-26T05:45:16;2.92;;;1.80;;
85158;SDS011;75525;50.718;10.600;2024-02-26T05:46:17;3.28;;;1.95;;
85158;SDS011;75525;50.718;10.600;2024-02-26T05:47:18;2.70;;;1.65;;
85158;SDS011;75525;50.718;10.600;2024-02-26T05:48:19;3.15;;;1.77;;
85158;SDS011;75525;50.718;10.600;2024-02-26T05:49:20;3.65;;;1.70;;
85158;SDS011;75525;50.718;10.600;2024-02-26T05:50:22;5.65;;;3.17;;
85158;SDS011;75525;50.718;10.600;2024-02-26T05:51:22;4.45;;;2.80;;
85158;SDS011;75525;50.718;10.600;2024-02-26T05:52:23;5.63;;;3.45;;
85158;SDS011;75525;50.718;10.600;2024-02-26T05:53:23;4.35;;;2.70;;
85158;SDS011;75525;50.718;10.600;2024-02-26T05:54:24;4.68;;;2.60;;
85158;SDS011;75525;50.718;10.600;2024-02-26T05:55:24;3.90;;;2.33;;
85158;SDS011;75525;50.718;10.600;2024-02-26T05:56:25;5.55;;;2.08;;
85158;SDS011;75525;50.718;10.600;2024-02-26T05:57:25;4.10;;;2.25;;
85158;SDS011;75525;50.718;10.600;2024-02-26T05:58:25;3.80;;;2.03;;
85158;SDS011;75525;50.718;10.600;2024-02-26T05:59:26;6.60;;;4.63;;
85158;SDS011;75525;50.718;10.600;2024-02-26T06:00:26;6.22;;;3.92;;
85158;SDS011;75525;50.718;10.600;2024-02-26T06:01:27;4.63;;;2.90;;
85158;SDS011;75525;50.718;10.600;2024-02-26T06:02:27;5.65;;;3.30;;